Time;durP1;ratioP1;P1;durP2;ratioP2;P2;SDS_P1;SDS_P2;PMS_P1;PMS_P2;Temp;Humidity;BMP_temperature;BMP_pressure;BME280_temperature;BME280_humidity;BME280_pressure;Samples;Min_cycle;Max_cycle;Signal;HPM_P1;HPM_P2
2024/01/07 00:02:19;;;;;;;2.80;2.70;;;;;;;1.91;100.00;95170.53;5048411;28;20037;-71
2024/01/07 00:04:44;;;;;;;2.40;2.30;;;;;;;1.94;100.00;95178.13;5041843;28;20029;-72
2024/01/07 00:07:10;;;;;;;2.85;2.40;;;;;;;1.88;100.00;95178.53;5044567;28;20477;-72
2024/01/07 00:09:35;;;;;;;2.70;2.50;;;;;;;1.74;100.00;95182.03;5047800;28;20025;-72
2024/01/07 00:12:00;;;;;;;2.42;2.33;;;;;;;1.88;100.00;95184.56;5045671;28;20064;-73
2024/01/07 00:14:26;;;;;;;2.28;2.17;;;;;;;2.00;100.00;95175.13;5044642;28;20022;-72
2024/01/07 00:16:51;;;;;;;2.60;2.50;;;;;;;1.84;100.00;95175.31;5046707;28;20055;-72
2024/01/07 00:19:17;;;;;;;2.58;2.47;;;;;;;1.80;100.00;95177.28;5043733;28;20031;-72
2024/01/07 00:21:42;;;;;;;3.35;3.13;;;;;;;1.77;100.00;95172.31;5051090;28;20024;-72
2024/01/07 00:24:07;;;;;;;2.75;2.50;;;;;;;1.80;100.00;95173.84;5050445;28;20082;-72
2024/01/07 00:26:33;;;;;;;2.33;2.13;;;;;;;1.94;100.00;95171.19;5041387;28;20029;-72
2024/01/07 00:28:58;;;;;;;2.67;2.47;;;;;;;1.82;100.00;95170.22;5046484;28;20021;-72
2024/01/07 00:31:23;;;;;;;3.38;3.08;;;;;;;1.76;100.00;95164.59;5050807;28;20023;-72
2024/01/07 00:33:49;;;;;;;2.30;2.20;;;;;;;1.74;100.00;95163.88;5042120;28;20033;-72
2024/01/07 00:36:14;;;;;;;2.50;2.40;;;;;;;1.73;100.00;95165.63;5040621;28;20060;-72
2024/01/07 00:38:40;;;;;;;2.60;2.40;;;;;;;1.67;100.00;95164.28;5042348;28;20033;-72
2024/01/07 00:41:05;;;;;;;3.13;2.83;;;;;;;1.83;100.00;95153.72;5046614;28;20029;-72
2024/01/07 00:43:30;;;;;;;2.40;2.30;;;;;;;1.83;100.00;95158.06;5046657;28;20026;-72
2024/01/07 00:45:56;;;;;;;2.60;2.40;;;;;;;1.75;100.00;95148.19;5053287;28;20032;-72
2024/01/07 00:48:21;;;;;;;2.35;2.25;;;;;;;1.67;100.00;95153.06;5046336;28;20077;-72
2024/01/07 00:50:46;;;;;;;9.15;5.75;;;;;;;1.65;100.00;95150.53;5054407;28;20076;-72
2024/01/07 00:53:12;;;;;;;2.90;2.70;;;;;;;1.78;100.00;95160.97;5047012;28;20037;-72
2024/01/07 00:55:37;;;;;;;3.53;2.92;;;;;;;1.83;100.00;95155.47;5039607;28;20013;-72
2024/01/07 00:58:03;;;;;;;4.20;3.80;;;;;;;1.68;100.00;95146.94;5049534;28;20016;-72
2024/01/07 01:00:29;;;;;;;2.67;2.58;;;;;;;1.74;100.00;95154.31;5045890;28;20029;-72
2024/01/07 01:02:55;;;;;;;2.92;2.72;;;;;;;1.73;100.00;95150.06;5038111;28;20035;-71
2024/01/07 01:05:20;;;;;;;3.40;3.10;;;;;;;1.64;100.00;95148.88;5053708;28;20052;-71
2024/01/07 01:07:45;;;;;;;2.58;2.40;;;;;;;1.63;100.00;95155.00;5042555;28;20035;-71
2024/01/07 01:10:11;;;;;;;2.40;2.30;;;;;;;1.71;100.00;95164.91;5047364;28;20013;-72
2024/01/07 01:12:36;;;;;;;2.38;2.28;;;;;;;1.69;100.00;95161.56;5044265;28;20063;-72
2024/01/07 01:15:02;;;;;;;2.67;2.47;;;;;;;1.62;100.00;95163.72;5041749;28;20659;-71
2024/01/07 01:17:27;;;;;;;2.17;2.05;;;;;;;1.57;100.00;95156.25;5040956;28;20035;-72
2024/01/07 01:19:53;;;;;;;2.75;2.50;;;;;;;1.54;100.00;95161.63;5043191;28;20024;-72
2024/01/07 01:22:18;;;;;;;19.25;12.05;;;;;;;1.55;100.00;95159.88;5049034;28;20499;-72
2024/01/07 01:24:45;;;;;;;2.50;2.40;;;;;;;1.65;100.00;95162.72;5038058;28;20393;-72
2024/01/07 01:27:12;;;;;;;2.15;2.05;;;;;;;1.75;100.00;95168.94;5048142;28;20021;-72
2024/01/07 01:29:37;;;;;;;2.13;2.03;;;;;;;1.64;100.00;95172.25;5049877;28;20051;-72
2024/01/07 01:32:03;;;;;;;2.10;2.00;;;;;;;1.65;100.00;95173.09;5047014;28;20025;-72
2024/01/07 01:34:28;;;;;;;2.22;2.10;;;;;;;1.60;100.00;95167.38;5047570;28;20025;-72
2024/01/07 01:36:53;;;;;;;2.15;2.05;;;;;;;1.70;100.00;95169.28;5043952;28;20029;-72
2024/01/07 01:39:19;;;;;;;1.95;1.95;;;;;;;1.71;100.00;95168.34;5041154;28;20044;-72
2024/01/07 01:41:44;;;;;;;1.88;1.77;;;;;;;1.69;100.00;95180.59;5050674;28;20028;-72
2024/01/07 01:44:10;;;;;;;2.17;2.08;;;;;;;1.69;100.00;95172.81;5048757;28;20083;-72
2024/01/07 01:46:35;;;;;;;2.28;2.17;;;;;;;1.72;100.00;95174.34;5046812;28;20048;-72
2024/01/07 01:49:01;;;;;;;2.30;2.20;;;;;;;1.80;100.00;95172.09;5037753;28;20125;-72
2024/01/07 01:51:27;;;;;;;1.40;1.40;;;;;;;1.85;100.00;95170.03;5049994;28;20574;-72
2024/01/07 01:53:54;;;;;;;2.40;2.30;;;;;;;1.76;100.00;95174.97;5047892;28;20116;-72
2024/01/07 01:56:23;;;;;;;2.15;2.05;;;;;;;1.71;100.00;95170.94;5047093;28;20573;-72
2024/01/07 01:58:48;;;;;;;2.03;1.92;;;;;;;1.73;100.00;95168.22;5046385;28;20017;-72
2024/01/07 02:01:14;;;;;;;2.35;2.25;;;;;;;1.69;100.00;95170.19;5048051;28;20879;-72
2024/01/07 02:03:39;;;;;;;1.98;1.88;;;;;;;1.81;100.00;95175.50;5052440;28;20025;-72
2024/01/07 02:06:05;;;;;;;2.35;2.15;;;;;;;1.78;100.00;95175.72;5046631;28;20018;-72
2024/01/07 02:08:31;;;;;;;2.08;1.90;;;;;;;1.76;100.00;95168.00;5037943;28;20036;-72
2024/01/07 02:10:56;;;;;;;2.17;2.08;;;;;;;1.73;100.00;95168.22;5048538;28;20010;-72
2024/01/07 02:13:22;;;;;;;2.20;2.10;;;;;;;1.67;100.00;95171.22;5039050;28;20056;-72
2024/01/07 02:15:47;;;;;;;2.25;2.05;;;;;;;1.74;100.00;95175.06;5047788;28;20032;-70
2024/01/07 02:18:13;;;;;;;2.10;2.00;;;;;;;1.80;100.00;95174.69;5042759;28;20024;-72
2024/01/07 02:20:38;;;;;;;1.98;1.88;;;;;;;1.79;100.00;95167.00;5040393;28;20671;-72
2024/01/07 02:23:04;;;;;;;2.15;2.05;;;;;;;1.84;100.00;95168.34;5044897;28;20051;-72
2024/01/07 02:25:36;;;;;;;2.50;2.40;;;;;;;1.86;100.00;95169.09;5040318;28;20034;-72
2024/01/07 02:28:01;;;;;;;2.30;2.20;;;;;;;1.78;100.00;95165.31;5048501;28;20024;-72
2024/01/07 02:30:27;;;;;;;2.35;2.25;;;;;;;1.75;100.00;95158.56;5048418;28;20513;-72
2024/01/07 02:32:52;;;;;;;2.65;2.55;;;;;;;1.70;100.00;95158.03;5042329;28;20017;-72
2024/01/07 02:35:18;;;;;;;2.55;2.22;;;;;;;1.81;100.00;95172.91;5047260;28;20512;-72
2024/01/07 02:37:43;;;;;;;2.50;2.40;;;;;;;1.78;100.00;95171.38;5041323;28;20026;-72
2024/01/07 02:40:09;;;;;;;2.00;1.90;;;;;;;1.67;100.00;95160.84;5049069;28;20154;-72
2024/01/07 02:42:34;;;;;;;2.30;2.20;;;;;;;1.62;100.00;95168.91;5039956;28;20133;-72
2024/01/07 02:45:00;;;;;;;2.20;2.10;;;;;;;1.64;100.00;95167.06;5047588;28;20029;-72
2024/01/07 02:47:25;;;;;;;1.83;1.77;;;;;;;1.64;100.00;95161.03;5042855;28;20515;-72
2024/01/07 02:49:51;;;;;;;2.05;1.95;;;;;;;1.85;100.00;95176.97;5048079;28;20021;-72
2024/01/07 02:52:16;;;;;;;2.28;2.17;;;;;;;1.69;100.00;95169.34;5049849;28;20040;-72
2024/01/07 02:54:42;;;;;;;2.08;1.98;;;;;;;1.72;100.00;95161.38;5042702;28;20013;-72
2024/01/07 02:57:07;;;;;;;3.50;3.22;;;;;;;1.64;100.00;95161.03;5043579;28;20123;-72
2024/01/07 02:59:33;;;;;;;2.00;1.90;;;;;;;1.66;100.00;95167.81;5046306;28;20486;-72
2024/01/07 03:01:58;;;;;;;1.90;1.80;;;;;;;1.67;100.00;95164.28;5048202;28;20152;-72
2024/01/07 03:04:24;;;;;;;2.05;1.95;;;;;;;1.65;100.00;95157.53;5042826;28;20470;-72
2024/01/07 03:06:49;;;;;;;2.15;2.05;;;;;;;1.72;100.00;95158.78;5053128;28;20024;-72
2024/01/07 03:09:14;;;;;;;1.90;1.80;;;;;;;1.71;100.00;95152.75;5047836;28;20033;-72
2024/01/07 03:11:43;;;;;;;2.10;2.00;;;;;;;1.58;100.00;95154.50;5052342;28;20036;-72
2024/01/07 03:14:10;;;;;;;1.80;1.80;;;;;;;1.53;100.00;95148.78;5048736;28;20017;-72
2024/01/07 03:16:35;;;;;;;1.67;1.67;;;;;;;1.59;100.00;95166.53;5040230;28;20100;-72
2024/01/07 03:19:01;;;;;;;1.80;1.80;;;;;;;1.56;100.00;95156.34;5040917;28;20052;-72
2024/01/07 03:21:27;;;;;;;1.85;1.75;;;;;;;1.63;100.00;95149.81;5046829;28;20083;-72
2024/01/07 03:23:52;;;;;;;2.00;1.90;;;;;;;1.63;100.00;95149.81;5049841;28;20017;-72
2024/01/07 03:26:19;;;;;;;2.00;1.90;;;;;;;1.57;100.00;95142.44;5050558;28;20074;-72
2024/01/07 03:28:44;;;;;;;2.15;2.05;;;;;;;1.62;100.00;95148.16;5051483;28;20071;-72
2024/01/07 03:31:13;;;;;;;2.03;1.85;;;;;;;1.67;100.00;95146.13;5049116;28;20025;-72
2024/01/07 03:33:40;;;;;;;2.10;2.00;;;;;;;1.58;100.00;95146.69;5041971;28;20039;-72
2024/01/07 03:36:07;;;;;;;2.25;2.15;;;;;;;1.57;100.00;95147.63;5054566;28;20029;-72
2024/01/07 03:38:33;;;;;;;2.00;1.90;;;;;;;1.73;100.00;95154.44;5043982;28;20036;-72
2024/01/07 03:40:58;;;;;;;2.00;1.90;;;;;;;1.50;100.00;95144.59;5046718;28;20029;-72
2024/01/07 03:43:23;;;;;;;1.80;1.80;;;;;;;1.56;100.00;95136.44;5049872;28;20036;-72
2024/01/07 03:45:49;;;;;;;2.13;2.03;;;;;;;1.58;100.00;95157.09;5051972;28;20619;-72
2024/01/07 03:48:15;;;;;;;2.33;2.22;;;;;;;1.59;100.00;95156.16;5047063;28;20124;-72
2024/01/07 03:50:40;;;;;;;2.30;2.17;;;;;;;1.65;100.00;95152.34;5045132;28;20616;-72
2024/01/07 03:53:05;;;;;;;2.15;2.05;;;;;;;1.58;100.00;95146.69;5046640;28;20032;-72
2024/01/07 03:55:31;;;;;;;1.88;1.88;;;;;;;1.50;100.00;95149.78;5051299;28;20053;-72
2024/01/07 03:57:56;;;;;;;2.05;1.95;;;;;;;1.61;100.00;95161.25;5045998;28;20057;-72
2024/01/07 04:00:22;;;;;;;2.20;2.10;;;;;;;1.63;100.00;95160.19;5053597;28;20025;-71
2024/01/07 04:02:47;;;;;;;2.10;2.00;;;;;;;1.56;100.00;95144.22;5044924;28;20037;-72
2024/01/07 04:05:14;;;;;;;2.08;1.98;;;;;;;1.55;100.00;95157.28;5052919;28;20028;-72
2024/01/07 04:07:40;;;;;;;2.40;2.30;;;;;;;1.54;100.00;95161.63;5053452;28;20056;-71
2024/01/07 04:10:06;;;;;;;2.10;2.00;;;;;;;1.57;100.00;95158.88;5043483;28;20052;-71
2024/01/07 04:12:31;;;;;;;2.17;2.08;;;;;;;1.56;100.00;95153.75;5051516;28;20033;-72
2024/01/07 04:14:56;;;;;;;2.13;2.03;;;;;;;1.64;100.00;95151.47;5050471;28;20018;-72
2024/01/07 04:17:23;;;;;;;2.30;2.20;;;;;;;1.56;100.00;95158.94;5050025;28;20191;-71
2024/01/07 04:19:49;;;;;;;1.92;1.83;;;;;;;1.53;100.00;95149.59;5048186;28;20033;-71
2024/01/07 04:22:14;;;;;;;2.42;2.22;;;;;;;1.51;100.00;95166.22;5043096;28;20419;-72
2024/01/07 04:24:43;;;;;;;2.47;2.38;;;;;;;1.57;100.00;95165.81;5045856;28;20074;-72
2024/01/07 04:27:08;;;;;;;2.22;2.13;;;;;;;1.65;100.00;95166.13;5048541;28;20057;-71
2024/01/07 04:29:33;;;;;;;2.03;1.98;;;;;;;1.51;100.00;95148.84;5048302;28;20036;-72
2024/01/07 04:31:59;;;;;;;1.95;1.85;;;;;;;1.51;100.00;95158.41;5049268;28;20067;-72
2024/01/07 04:34:25;;;;;;;2.30;2.20;;;;;;;1.61;100.00;95163.84;5053501;28;20036;-71
2024/01/07 04:36:51;;;;;;;1.85;1.80;;;;;;;1.53;100.00;95164.34;5052003;28;20039;-71
2024/01/07 04:39:16;;;;;;;2.10;2.00;;;;;;;1.54;100.00;95166.81;5052432;28;20028;-72
2024/01/07 04:41:41;;;;;;;2.03;1.92;;;;;;;1.76;100.00;95156.81;5052359;28;20080;-71
2024/01/07 04:44:07;;;;;;;2.30;2.20;;;;;;;1.58;100.00;95159.69;5054129;28;20029;-72
2024/01/07 04:46:39;;;;;;;1.83;1.73;;;;;;;1.59;100.00;95161.34;5055948;28;20099;-71
2024/01/07 04:49:05;;;;;;;1.80;1.80;;;;;;;1.65;100.00;95149.72;5047632;28;20057;-72
2024/01/07 04:51:31;;;;;;;2.08;1.98;;;;;;;1.59;100.00;95157.94;5046048;28;20029;-72
2024/01/07 04:53:57;;;;;;;2.45;2.00;;;;;;;1.72;100.00;95169.16;5036835;28;20029;-72
2024/01/07 04:56:22;;;;;;;1.58;1.58;;;;;;;1.68;100.00;95155.56;5036575;28;20544;-71
2024/01/07 04:58:48;;;;;;;1.85;1.80;;;;;;;1.56;100.00;95156.34;5038216;28;20026;-72
2024/01/07 05:01:13;;;;;;;1.95;1.88;;;;;;;1.67;100.00;95153.91;5037030;28;20137;-72
2024/01/07 05:03:38;;;;;;;1.80;1.70;;;;;;;1.67;100.00;95169.47;5051572;28;20444;-71
2024/01/07 05:06:04;;;;;;;1.42;1.42;;;;;;;1.66;100.00;95157.44;5048224;28;20033;-72
2024/01/07 05:08:30;;;;;;;1.83;1.70;;;;;;;1.63;100.00;95165.38;5045049;28;20047;-72
2024/01/07 05:10:56;;;;;;;1.60;1.60;;;;;;;1.75;100.00;95157.75;5044218;28;20024;-72
2024/01/07 05:13:21;;;;;;;1.77;1.67;;;;;;;1.61;100.00;95156.88;5043477;28;20032;-72
2024/01/07 05:15:53;;;;;;;1.70;1.70;;;;;;;1.77;100.00;95158.47;5037875;28;20033;-72
2024/01/07 05:18:22;;;;;;;1.75;1.67;;;;;;;1.67;100.00;95166.03;5054941;28;20020;-71
2024/01/07 05:20:47;;;;;;;1.58;1.50;;;;;;;1.69;100.00;95162.41;5049135;28;20120;-71
2024/01/07 05:23:13;;;;;;;1.60;1.50;;;;;;;1.69;100.00;95164.16;5053645;28;20111;-72
2024/01/07 05:25:38;;;;;;;1.80;1.70;;;;;;;1.60;100.00;95155.22;5054345;28;20092;-71
2024/01/07 05:28:04;;;;;;;1.75;1.65;;;;;;;1.65;100.00;95152.34;5053965;28;20094;-71
2024/01/07 05:30:30;;;;;;;1.60;1.60;;;;;;;1.58;100.00;95157.09;5054925;28;20036;-71
2024/01/07 05:32:55;;;;;;;2.10;2.00;;;;;;;1.61;100.00;95169.84;5054187;28;20044;-72
2024/01/07 05:35:20;;;;;;;1.88;1.77;;;;;;;1.59;100.00;95147.56;5055407;28;20025;-71
2024/01/07 05:37:46;;;;;;;1.58;1.58;;;;;;;1.62;100.00;95161.13;5051280;28;20032;-71
2024/01/07 05:40:11;;;;;;;1.50;1.50;;;;;;;1.69;100.00;95154.63;5051888;28;20154;-71
2024/01/07 05:42:37;;;;;;;1.83;1.70;;;;;;;1.76;100.00;95172.38;5050452;28;20029;-72
2024/01/07 05:45:02;;;;;;;1.90;1.80;;;;;;;1.65;100.00;95167.91;5052116;28;20033;-71
2024/01/07 05:47:28;;;;;;;1.50;1.50;;;;;;;1.60;100.00;95175.97;5042670;28;20068;-71
2024/01/07 05:49:53;;;;;;;1.83;1.77;;;;;;;1.63;100.00;95190.53;5053173;28;20017;-71
2024/01/07 05:52:19;;;;;;;1.40;1.40;;;;;;;1.73;100.00;95176.00;5035803;28;20517;-71
2024/01/07 05:54:44;;;;;;;1.60;1.60;;;;;;;1.64;100.00;95171.44;5049330;28;20980;-71
2024/01/07 05:57:12;;;;;;;1.05;1.05;;;;;;;1.74;100.00;95171.66;5036334;28;20098;-71
2024/01/07 05:59:37;;;;;;;1.35;1.35;;;;;;;1.66;100.00;95169.56;5049971;28;20406;-71
2024/01/07 06:02:03;;;;;;;1.40;1.40;;;;;;;1.70;100.00;95173.63;5046601;28;20114;-71
2024/01/07 06:04:28;;;;;;;1.30;1.30;;;;;;;1.65;100.00;95173.91;5042348;28;20067;-71
2024/01/07 06:06:53;;;;;;;1.88;1.77;;;;;;;1.64;100.00;95174.84;5038114;28;20080;-71
2024/01/07 06:09:19;;;;;;;1.60;1.50;;;;;;;1.75;100.00;95200.09;5054877;28;20108;-71
2024/01/07 06:11:44;;;;;;;1.80;1.80;;;;;;;1.69;100.00;95169.34;5048372;28;20077;-72
2024/01/07 06:14:09;;;;;;;2.08;1.98;;;;;;;1.72;100.00;95174.34;5047928;28;20499;-71
2024/01/07 06:16:35;;;;;;;2.63;2.53;;;;;;;1.66;100.00;95175.59;5045253;28;20025;-71
2024/01/07 06:19:00;;;;;;;1.30;1.30;;;;;;;1.79;100.00;95185.16;5035062;28;20105;-71
2024/01/07 06:21:26;;;;;;;1.40;1.30;;;;;;;1.79;100.00;95169.59;5053140;28;20036;-71
2024/01/07 06:23:52;;;;;;;2.88;2.78;;;;;;;1.73;100.00;95178.59;5054176;28;20107;-71
2024/01/07 06:26:20;;;;;;;1.63;1.52;;;;;;;1.76;100.00;95175.81;5050297;28;20045;-71
2024/01/07 06:28:45;;;;;;;1.48;1.48;;;;;;;1.78;100.00;95173.13;5045351;28;20029;-71
2024/01/07 06:31:10;;;;;;;1.10;1.10;;;;;;;1.78;100.00;95189.53;5052417;28;20075;-71
2024/01/07 06:33:36;;;;;;;1.13;1.13;;;;;;;1.92;100.00;95187.78;5054212;28;20045;-72
2024/01/07 06:36:01;;;;;;;3.55;3.35;;;;;;;1.79;100.00;95178.22;5048859;28;20044;-71
2024/01/07 06:38:27;;;;;;;1.33;1.33;;;;;;;1.81;100.00;95196.28;5054158;28;20048;-71
2024/01/07 06:40:54;;;;;;;1.42;1.42;;;;;;;1.85;100.00;95190.78;5054114;28;20102;-72
2024/01/07 06:43:20;;;;;;;2.72;2.55;;;;;;;1.88;100.00;95220.06;5053831;28;20044;-72
2024/01/07 06:45:45;;;;;;;4.70;4.40;;;;;;;1.77;100.00;95177.50;5054100;28;20017;-71
2024/01/07 06:48:11;;;;;;;1.80;1.80;;;;;;;1.83;100.00;95202.19;5053831;28;20128;-71
2024/01/07 06:50:36;;;;;;;1.20;1.20;;;;;;;1.84;100.00;95188.28;5054025;28;20025;-71
2024/01/07 06:53:01;;;;;;;2.78;1.15;;;;;;;1.98;100.00;95201.19;5054094;28;20085;-71
2024/01/07 06:55:27;;;;;;;1.60;1.60;;;;;;;1.94;100.00;95194.53;5053525;28;20055;-71
2024/01/07 06:57:52;;;;;;;1.58;1.58;;;;;;;1.83;100.00;95192.66;5043856;28;20087;-71
2024/01/07 07:00:18;;;;;;;1.20;1.20;;;;;;;1.85;100.00;95179.56;5038957;28;20040;-71
2024/01/07 07:02:43;;;;;;;1.13;1.13;;;;;;;1.92;100.00;95190.38;5045228;28;20471;-72
2024/01/07 07:05:09;;;;;;;1.73;1.73;;;;;;;1.95;100.00;95196.22;5035822;28;20501;-71
2024/01/07 07:07:34;;;;;;;1.25;1.25;;;;;;;1.81;100.00;95191.09;5045360;28;20035;-71
2024/01/07 07:10:00;;;;;;;1.20;1.20;;;;;;;1.94;100.00;95212.72;5053994;28;20021;-72
2024/01/07 07:12:25;;;;;;;1.60;1.50;;;;;;;1.85;100.00;95216.75;5053126;28;20695;-71
2024/01/07 07:14:50;;;;;;;1.42;1.42;;;;;;;1.84;100.00;95222.88;5049178;28;20025;-71
2024/01/07 07:17:16;;;;;;;1.95;1.75;;;;;;;1.92;100.00;95214.59;5057647;28;20021;-71
2024/01/07 07:19:42;;;;;;;1.38;1.30;;;;;;;1.79;100.00;95217.16;5056289;28;20546;-71
2024/01/07 07:22:07;;;;;;;1.15;1.15;;;;;;;1.82;100.00;95229.09;5053379;28;20481;-71
2024/01/07 07:24:32;;;;;;;1.92;1.85;;;;;;;1.93;100.00;95203.28;5053217;28;20082;-71
2024/01/07 07:26:58;;;;;;;1.70;1.70;;;;;;;1.83;100.00;95205.63;5056692;28;20048;-71
2024/01/07 07:29:23;;;;;;;1.40;1.40;;;;;;;1.82;100.00;95210.91;5052393;28;20033;-71
2024/01/07 07:31:49;;;;;;;1.10;1.10;;;;;;;1.79;100.00;95206.78;5050694;28;20029;-71
2024/01/07 07:34:14;;;;;;;1.20;1.20;;;;;;;1.89;100.00;95204.41;5059177;28;20029;-71
2024/01/07 07:36:41;;;;;;;1.38;1.38;;;;;;;1.81;100.00;95228.28;5056037;28;20481;-70
2024/01/07 07:39:06;;;;;;;2.13;2.03;;;;;;;1.95;100.00;95232.56;5042800;28;20029;-71
2024/01/07 07:41:31;;;;;;;2.30;2.20;;;;;;;1.94;100.00;95225.69;5051809;28;20021;-71
2024/01/07 07:43:57;;;;;;;1.75;1.73;;;;;;;1.91;100.00;95209.47;5056409;28;20029;-71
2024/01/07 07:46:22;;;;;;;3.63;3.35;;;;;;;1.93;100.00;95228.38;5057280;28;20076;-71
2024/01/07 07:48:48;;;;;;;2.75;2.55;;;;;;;1.86;100.00;95208.03;5055196;28;20528;-70
2024/01/07 07:51:13;;;;;;;1.40;1.40;;;;;;;1.85;100.00;95203.75;5049716;28;20028;-73
2024/01/07 07:53:42;;;;;;;3.50;3.20;;;;;;;1.92;100.00;95224.97;5056224;28;20035;-72
2024/01/07 07:56:08;;;;;;;6.28;4.88;;;;;;;1.89;100.00;95220.00;5051159;28;20371;-73
2024/01/07 07:58:33;;;;;;;1.90;1.80;;;;;;;1.81;100.00;95227.41;5050505;28;20039;-72
2024/01/07 08:00:59;;;;;;;1.70;1.70;;;;;;;1.86;100.00;95221.00;5056639;28;20100;-72
2024/01/07 08:03:24;;;;;;;2.33;2.13;;;;;;;1.84;100.00;95229.81;5051655;28;20036;-71
2024/01/07 08:05:49;;;;;;;2.85;2.65;;;;;;;1.82;100.00;95231.69;5049941;28;20037;-72
2024/01/07 08:08:16;;;;;;;1.88;1.88;;;;;;;1.95;100.00;95242.09;5048916;28;20056;-72
2024/01/07 08:10:42;;;;;;;3.53;3.25;;;;;;;1.83;100.00;95241.13;5050469;28;20025;-72
2024/01/07 08:13:08;;;;;;;5.55;5.05;;;;;;;1.75;100.00;95233.84;5057353;28;20029;-71
2024/01/07 08:15:34;;;;;;;3.17;2.97;;;;;;;1.88;100.00;95235.66;5050282;28;20079;-71
2024/01/07 08:18:00;;;;;;;5.30;4.90;;;;;;;1.83;100.00;95233.34;5049130;28;20029;-72
2024/01/07 08:20:27;;;;;;;4.60;4.30;;;;;;;1.84;100.00;95235.00;5054515;28;20417;-71
2024/01/07 08:22:52;;;;;;;4.68;4.30;;;;;;;1.81;100.00;95230.03;5054644;28;20028;-72
2024/01/07 08:25:18;;;;;;;3.47;3.28;;;;;;;1.93;100.00;95242.22;5060263;28;20124;-71
2024/01/07 08:27:43;;;;;;;2.50;2.40;;;;;;;1.97;100.00;95251.47;5055702;28;20044;-71
2024/01/07 08:30:09;;;;;;;4.38;3.95;;;;;;;1.88;100.00;95230.47;5055234;28;20051;-72
2024/01/07 08:32:35;;;;;;;1.42;1.42;;;;;;;2.02;100.00;95229.56;5047852;28;20116;-72
2024/01/07 08:35:00;;;;;;;1.33;1.33;;;;;;;1.94;100.00;95246.47;5044993;28;20040;-69
2024/01/07 08:37:26;;;;;;;2.08;1.98;;;;;;;1.93;100.00;95237.03;5045488;28;20033;-72
2024/01/07 08:39:51;;;;;;;2.45;2.35;;;;;;;1.93;100.00;95234.44;5039894;28;20382;-73
2024/01/07 08:42:17;;;;;;;2.53;2.42;;;;;;;1.94;100.00;95224.84;5046783;28;20021;-71
2024/01/07 08:44:42;;;;;;;1.80;1.80;;;;;;;1.91;100.00;95243.22;5048872;28;20033;-70
2024/01/07 08:47:07;;;;;;;1.17;1.17;;;;;;;1.99;100.00;95244.41;5043758;28;20064;-71
2024/01/07 08:49:33;;;;;;;2.03;1.92;;;;;;;1.90;100.00;95255.41;5047936;28;20103;-72
2024/01/07 08:51:59;;;;;;;1.52;1.52;;;;;;;1.89;100.00;95232.97;5055309;28;20016;-73
2024/01/07 08:54:24;;;;;;;1.50;1.50;;;;;;;1.90;100.00;95247.63;5050192;28;20368;-74
2024/01/07 08:56:49;;;;;;;2.10;2.00;;;;;;;1.86;100.00;95238.34;5048286;28;20017;-72
2024/01/07 08:59:15;;;;;;;3.28;3.08;;;;;;;1.83;100.00;95252.38;5048977;28;20036;-70
2024/01/07 09:01:40;;;;;;;4.50;4.10;;;;;;;1.84;100.00;95251.44;5047583;28;20100;-70
2024/01/07 09:04:05;;;;;;;2.72;2.53;;;;;;;1.90;100.00;95239.81;5045759;28;20021;-69
2024/01/07 09:06:32;;;;;;;1.83;1.73;;;;;;;1.89;100.00;95248.53;5053810;28;20029;-70
2024/01/07 09:08:57;;;;;;;4.30;3.90;;;;;;;1.93;100.00;95275.13;5049366;28;20039;-69
2024/01/07 09:11:23;;;;;;;6.25;5.57;;;;;;;1.91;100.00;95251.88;5049795;28;20029;-70
2024/01/07 09:13:50;;;;;;;1.60;1.60;;;;;;;2.00;100.00;95240.88;5052246;28;20016;-70
2024/01/07 09:16:15;;;;;;;3.00;2.80;;;;;;;1.91;100.00;95230.25;5039342;28;20052;-73
2024/01/07 09:18:41;;;;;;;4.13;3.85;;;;;;;1.97;100.00;95245.41;5055608;28;20037;-71
2024/01/07 09:21:06;;;;;;;3.22;2.92;;;;;;;1.92;100.00;95247.50;5053709;28;20454;-71
2024/01/07 09:23:33;;;;;;;3.90;3.60;;;;;;;1.98;100.00;95252.28;5054260;28;20028;-71
2024/01/07 09:25:59;;;;;;;1.70;1.70;;;;;;;1.98;100.00;95250.53;5048649;28;20033;-73
2024/01/07 09:28:24;;;;;;;3.90;3.70;;;;;;;2.00;100.00;95240.88;5043738;28;20105;-70
2024/01/07 09:30:50;;;;;;;2.22;2.13;;;;;;;2.03;100.00;95262.38;5053760;28;20124;-72
2024/01/07 09:33:15;;;;;;;1.75;1.65;;;;;;;2.00;100.00;95266.84;5052831;28;20016;-70
2024/01/07 09:35:41;;;;;;;1.70;1.70;;;;;;;2.03;100.00;95247.63;5055459;28;20025;-71
2024/01/07 09:38:07;;;;;;;1.65;1.65;;;;;;;2.08;100.00;95263.75;5042028;28;20069;-71
2024/01/07 09:40:32;;;;;;;1.83;1.73;;;;;;;2.08;100.00;95258.56;5043992;28;20028;-70
2024/01/07 09:42:59;;;;;;;1.73;1.65;;;;;;;2.09;100.00;95247.22;5035614;28;20091;-71
2024/01/07 09:45:25;;;;;;;2.40;2.30;;;;;;;2.12;100.00;95248.81;5047477;28;20032;-69
2024/01/07 09:47:51;;;;;;;1.80;1.70;;;;;;;2.21;100.00;95257.72;5033773;28;20056;-71
2024/01/07 09:50:16;;;;;;;1.50;1.50;;;;;;;2.13;100.00;95250.47;5053974;28;20052;-70
2024/01/07 09:52:46;;;;;;;2.10;2.00;;;;;;;2.11;100.00;95247.16;5048828;28;20036;-72
2024/01/07 09:55:41;;;;;;;2.28;1.83;;;;;;;2.09;100.00;95251.56;5054548;28;20074;-72
2024/01/07 09:58:07;;;;;;;2.08;1.98;;;;;;;2.18;100.00;95268.31;5045386;28;20052;-72
2024/01/07 10:00:33;;;;;;;1.80;1.70;;;;;;;2.09;100.00;95262.81;5035861;28;20586;-72
2024/01/07 10:02:58;;;;;;;1.90;1.90;;;;;;;2.07;100.00;95282.00;5037062;28;20025;-70
2024/01/07 10:05:24;;;;;;;1.45;1.45;;;;;;;2.16;100.00;95271.03;5036432;28;20025;-71
2024/01/07 10:07:49;;;;;;;1.90;1.80;;;;;;;2.17;100.00;95254.53;5044328;28;20029;-71
2024/01/07 10:10:15;;;;;;;1.65;1.63;;;;;;;2.22;100.00;95255.03;5044364;28;20040;-72
2024/01/07 10:12:41;;;;;;;1.80;1.70;;;;;;;2.24;100.00;95271.34;5046687;28;20036;-72
2024/01/07 10:15:07;;;;;;;1.60;1.50;;;;;;;2.22;100.00;95273.22;5050613;28;20128;-73
2024/01/07 10:17:33;;;;;;;3.13;2.83;;;;;;;2.24;100.00;95250.56;5039838;28;20063;-73
2024/01/07 10:19:58;;;;;;;3.45;3.15;;;;;;;2.20;100.00;95256.06;5052940;28;20020;-73
2024/01/07 10:22:24;;;;;;;1.65;1.65;;;;;;;2.23;100.00;95253.28;5053991;28;20060;-74
2024/01/07 10:24:51;;;;;;;2.17;2.08;;;;;;;2.18;100.00;95258.78;5053123;28;20017;-73
2024/01/07 10:27:17;;;;;;;2.20;2.10;;;;;;;2.23;100.00;95248.91;5052698;28;20501;-73
2024/01/07 10:29:42;;;;;;;1.85;1.75;;;;;;;2.20;100.00;95251.72;5047471;28;20091;-73
2024/01/07 10:32:07;;;;;;;1.90;1.80;;;;;;;2.21;100.00;95257.72;5036637;28;20117;-73
2024/01/07 10:34:36;;;;;;;2.22;2.13;;;;;;;2.29;100.00;95268.47;5051293;28;20067;-73
2024/01/07 10:37:04;;;;;;;2.00;1.90;;;;;;;2.33;100.00;95262.13;5048386;28;20021;-73
2024/01/07 10:39:30;;;;;;;3.40;3.20;;;;;;;2.27;100.00;95250.38;5035864;28;20021;-72
2024/01/07 10:41:57;;;;;;;2.00;1.90;;;;;;;2.35;100.00;95251.66;5052954;28;20096;-73
2024/01/07 10:44:27;;;;;;;2.15;2.05;;;;;;;2.32;100.00;95254.41;5058275;28;20394;-72
2024/01/07 10:46:55;;;;;;;4.68;4.28;;;;;;;2.33;100.00;95245.72;5054544;28;20099;-73
2024/01/07 10:49:22;;;;;;;2.15;2.05;;;;;;;2.32;100.00;95236.22;5050821;28;20474;-73
2024/01/07 10:52:07;;;;;;;2.30;2.20;;;;;;;2.38;100.00;95239.25;5052437;28;20570;-73
2024/01/07 10:54:35;;;;;;;2.10;2.00;;;;;;;2.39;100.00;95240.91;5046561;28;20426;-73
2024/01/07 10:57:15;;;;;;;1.58;1.50;;;;;;;2.41;100.00;95235.63;5049354;28;20044;-73
2024/01/07 10:59:44;;;;;;;2.13;2.03;;;;;;;2.42;100.00;95237.31;5047641;28;20075;-73
2024/01/07 11:02:11;;;;;;;2.13;2.03;;;;;;;2.46;100.00;95230.94;5051788;28;20028;-74
2024/01/07 11:05:04;;;;;;;2.55;2.38;;;;;;;2.47;100.00;95231.81;5043313;28;20068;-73
2024/01/07 11:07:39;;;;;;;1.92;1.50;;;;;;;2.52;100.00;95225.34;5055478;28;20517;-73
2024/01/07 11:10:17;;;;;;;3.92;3.63;;;;;;;2.48;100.00;95226.47;5040780;28;20032;-74
2024/01/07 11:12:43;;;;;;;3.50;3.30;;;;;;;2.42;100.00;95222.53;5044535;28;20197;-73
2024/01/07 11:15:08;;;;;;;1.73;1.70;;;;;;;2.55;100.00;95229.50;5045705;28;20051;-73
2024/01/07 11:17:37;;;;;;;1.70;1.60;;;;;;;2.62;100.00;95212.53;5045028;28;20486;-73
2024/01/07 11:20:08;;;;;;;1.30;1.30;;;;;;;2.56;100.00;95200.81;5052019;28;20033;-73
2024/01/07 11:22:33;;;;;;;2.00;1.90;;;;;;;2.47;100.00;95206.63;5044859;28;20048;-73
2024/01/07 11:25:02;;;;;;;1.73;1.63;;;;;;;2.47;100.00;95209.22;5044037;28;20485;-73
2024/01/07 11:27:32;;;;;;;1.50;1.40;;;;;;;2.49;100.00;95222.13;5051321;28;20029;-73
2024/01/07 11:30:01;;;;;;;1.70;1.70;;;;;;;2.52;100.00;95220.13;5047226;28;20033;-73